createdAt,value
2023-11-25T00:01:36.586Z,1.97
2023-11-25T00:04:21.656Z,1.96
2023-11-25T00:07:07.712Z,1.11
2023-11-25T00:09:52.447Z,0.67
2023-11-25T00:12:37.299Z,1.28
2023-11-25T00:15:22.376Z,1.91
2023-11-25T00:18:07.637Z,1.75
2023-11-25T00:20:52.299Z,1.99
2023-11-25T00:23:37.376Z,2.35
2023-11-25T00:26:22.116Z,2.43
2023-11-25T00:29:07.026Z,2.41
2023-11-25T00:31:52.042Z,2.24
2023-11-25T00:34:37.101Z,1.82
2023-11-25T00:37:22.053Z,2.13
2023-11-25T00:40:07.003Z,1.58
2023-11-25T00:42:52.004Z,1.80
2023-11-25T00:45:37.045Z,1.71
2023-11-25T00:48:21.999Z,1.84
2023-11-25T00:51:06.899Z,2.16
2023-11-25T00:53:51.925Z,2.04
2023-11-25T00:56:36.957Z,2.25
2023-11-25T00:59:21.987Z,2.42
2023-11-25T01:02:07.065Z,2.46
2023-11-25T01:04:51.993Z,2.53
2023-11-25T01:07:36.898Z,2.35
2023-11-25T01:10:21.994Z,2.39
2023-11-25T01:13:07.064Z,2.03
2023-11-25T01:15:52.019Z,1.84
2023-11-25T01:18:37.083Z,1.83
2023-11-25T01:21:22.046Z,2.07
2023-11-25T01:24:07.229Z,2.17
2023-11-25T01:26:52.320Z,2.33
2023-11-25T01:29:37.391Z,2.49
2023-11-25T01:32:22.449Z,2.31
2023-11-25T01:35:07.447Z,2.34
2023-11-25T01:37:52.395Z,2.34
2023-11-25T01:40:37.156Z,2.48
2023-11-25T01:43:22.098Z,2.33
2023-11-25T01:46:07.025Z,2.47
2023-11-25T01:48:51.844Z,2.58
2023-11-25T01:51:36.772Z,1.86
2023-11-25T01:54:21.605Z,1.47
2023-11-25T01:57:06.536Z,2.16
2023-11-25T01:59:51.440Z,2.35
2023-11-25T02:02:36.647Z,2.40
2023-11-25T02:05:21.598Z,1.99
2023-11-25T02:08:06.375Z,1.66
2023-11-25T02:10:51.331Z,1.76
2023-11-25T02:13:36.416Z,1.28
2023-11-25T02:16:21.680Z,1.19
2023-11-25T02:19:06.425Z,1.74
2023-11-25T02:21:51.396Z,1.95
2023-11-25T02:24:36.275Z,1.57
2023-11-25T02:27:21.227Z,0.78
2023-11-25T02:30:06.051Z,0.56
2023-11-25T02:32:51.076Z,0.23
2023-11-25T02:35:35.964Z,0.49
2023-11-25T02:38:20.975Z,0.43
2023-11-25T02:41:06.084Z,0.50
2023-11-25T02:43:51.081Z,0.87
2023-11-25T02:46:36.165Z,1.26
2023-11-25T02:49:21.049Z,1.35
2023-11-25T02:52:06.329Z,0.44
2023-11-25T02:54:51.024Z,0.69
2023-11-25T02:57:36.030Z,0.54
2023-11-25T03:00:21.096Z,1.40
2023-11-25T03:03:05.981Z,1.21
2023-11-25T03:05:51.127Z,1.48
2023-11-25T03:08:36.010Z,1.00
2023-11-25T03:11:21.074Z,1.33
2023-11-25T03:14:05.989Z,-0.25
2023-11-25T03:16:51.146Z,0.04
2023-11-25T03:19:35.978Z,0.40
2023-11-25T03:22:21.047Z,0.12
2023-11-25T03:25:06.074Z,-0.17
2023-11-25T03:27:51.028Z,-0.34
2023-11-25T03:30:36.105Z,-0.46
2023-11-25T03:33:21.056Z,-1.04
2023-11-25T03:36:05.991Z,-0.80
2023-11-25T03:38:50.824Z,-0.94
2023-11-25T03:41:35.979Z,-0.76
2023-11-25T03:44:20.902Z,-0.69
2023-11-25T03:47:05.876Z,-0.75
2023-11-25T03:49:51.351Z,-0.54
2023-11-25T03:52:36.258Z,-0.15
2023-11-25T03:55:21.270Z,-0.17
2023-11-25T03:58:06.114Z,-0.26
2023-11-25T04:00:51.005Z,-0.85
2023-11-25T04:03:35.796Z,-0.86
2023-11-25T04:06:20.774Z,-1.23
2023-11-25T04:09:05.587Z,-0.24
2023-11-25T04:11:50.491Z,0.17
2023-11-25T04:14:35.688Z,0.48
2023-11-25T04:17:20.634Z,0.84
2023-11-25T04:20:05.691Z,1.08
2023-11-25T04:22:50.570Z,1.33
2023-11-25T04:25:35.508Z,1.15
2023-11-25T04:28:20.397Z,0.44
2023-11-25T04:31:05.398Z,0.61
2023-11-25T04:33:50.425Z,0.40
2023-11-25T04:36:35.391Z,0.36
2023-11-25T04:39:20.355Z,0.38
2023-11-25T04:42:05.196Z,0.24
2023-11-25T04:44:50.287Z,0.56
2023-11-25T04:47:35.279Z,0.89
2023-11-25T04:50:20.131Z,0.91
2023-11-25T04:53:04.968Z,0.75
2023-11-25T04:55:50.032Z,1.45
2023-11-25T04:58:35.009Z,1.45
2023-11-25T05:01:20.028Z,0.74
2023-11-25T05:04:04.930Z,0.71
2023-11-25T05:06:49.802Z,1.19
2023-11-25T05:09:34.894Z,1.41
2023-11-25T05:12:19.795Z,1.23
2023-11-25T05:15:04.853Z,1.27
2023-11-25T05:17:49.740Z,1.13
2023-11-25T05:20:34.705Z,1.06
2023-11-25T05:23:19.713Z,0.92
2023-11-25T05:26:04.547Z,-0.43
2023-11-25T05:28:49.711Z,0.20
2023-11-25T05:31:34.796Z,0.45
2023-11-25T05:34:19.546Z,0.28
2023-11-25T05:37:04.482Z,-0.05
2023-11-25T05:39:49.445Z,-1.56
2023-11-25T05:42:34.359Z,-1.11
2023-11-25T05:45:19.857Z,-0.46
2023-11-25T05:48:04.832Z,0.09
2023-11-25T05:50:49.705Z,-0.00
2023-11-25T05:53:34.752Z,0.25
2023-11-25T05:56:19.635Z,-0.27
2023-11-25T05:59:04.563Z,0.17
2023-11-25T06:01:49.667Z,0.58
2023-11-25T06:04:34.705Z,0.88
2023-11-25T06:07:19.464Z,0.90
2023-11-25T06:10:04.275Z,0.95
2023-11-25T06:12:49.251Z,1.32
2023-11-25T06:15:34.086Z,0.67
2023-11-25T06:18:19.173Z,0.94
2023-11-25T06:21:04.085Z,1.21
2023-11-25T06:23:49.034Z,0.75
2023-11-25T06:26:33.986Z,1.42
2023-11-25T06:29:19.070Z,1.52
2023-11-25T06:32:04.053Z,1.56
2023-11-25T06:34:49.026Z,1.61
2023-11-25T06:37:34.086Z,1.76
2023-11-25T06:40:19.080Z,1.79
2023-11-25T06:43:03.940Z,1.68
2023-11-25T06:45:48.808Z,1.14
2023-11-25T06:48:33.875Z,1.32
2023-11-25T06:51:18.804Z,1.56
2023-11-25T06:54:03.994Z,1.54
2023-11-25T06:56:48.936Z,1.40
2023-11-25T06:59:33.750Z,1.56
2023-11-25T07:02:18.841Z,1.42
2023-11-25T07:05:03.584Z,1.52
2023-11-25T07:07:48.769Z,1.56
2023-11-25T07:10:33.645Z,1.56
2023-11-25T07:13:18.810Z,1.71
2023-11-25T07:16:03.777Z,1.84
2023-11-25T07:18:48.741Z,1.78
2023-11-25T07:21:33.749Z,1.63
2023-11-25T07:24:18.602Z,1.95
2023-11-25T07:27:03.583Z,2.03
2023-11-25T07:29:48.476Z,2.06
2023-11-25T07:32:33.600Z,2.17
2023-11-25T07:35:18.559Z,2.20
2023-11-25T07:38:03.488Z,2.02
2023-11-25T07:40:48.550Z,1.83
2023-11-25T07:43:33.474Z,1.55
2023-11-25T07:46:18.642Z,1.66
2023-11-25T07:49:03.488Z,1.55
2023-11-25T07:51:48.396Z,1.75
2023-11-25T07:54:33.303Z,1.62
2023-11-25T07:57:18.264Z,1.74
2023-11-25T08:00:03.183Z,1.56
2023-11-25T08:02:48.188Z,0.82
2023-11-25T08:05:33.150Z,1.57
2023-11-25T08:08:18.044Z,1.36
2023-11-25T08:11:03.117Z,1.61
2023-11-25T08:13:48.056Z,2.08
2023-11-25T08:16:33.020Z,1.74
2023-11-25T08:19:17.958Z,1.79
2023-11-25T08:22:02.950Z,1.73
2023-11-25T08:24:47.946Z,2.35
2023-11-25T08:27:32.964Z,2.01
2023-11-25T08:30:17.967Z,2.00
2023-11-25T08:33:02.923Z,1.32
2023-11-25T08:35:47.942Z,1.35
2023-11-25T08:38:32.951Z,1.96
2023-11-25T08:41:17.953Z,2.60
2023-11-25T08:44:02.849Z,3.20
2023-11-25T08:46:47.862Z,3.62
2023-11-25T08:49:32.806Z,3.99
2023-11-25T08:52:17.825Z,4.17
2023-11-25T08:55:02.735Z,4.22
2023-11-25T08:57:47.700Z,4.68
2023-11-25T09:00:32.883Z,4.75
2023-11-25T09:03:17.806Z,4.88
2023-11-25T09:06:02.705Z,4.82
2023-11-25T09:08:47.720Z,4.66
2023-11-25T09:11:32.574Z,4.93
2023-11-25T09:14:17.848Z,4.31
2023-11-25T09:17:03.264Z,3.49
2023-11-25T09:19:48.213Z,3.39
2023-11-25T09:22:33.099Z,2.82
2023-11-25T09:25:18.093Z,3.62
2023-11-25T09:28:02.914Z,3.96
2023-11-25T09:30:47.953Z,4.37
2023-11-25T09:33:32.907Z,4.67
2023-11-25T09:36:17.831Z,4.86
2023-11-25T09:39:02.773Z,3.55
2023-11-25T09:41:47.741Z,2.86
2023-11-25T09:44:32.625Z,2.34
2023-11-25T09:47:17.588Z,2.84
2023-11-25T09:50:02.438Z,2.92
2023-11-25T09:52:47.459Z,1.63
2023-11-25T09:55:32.394Z,1.59
2023-11-25T09:58:17.377Z,1.77
2023-11-25T10:01:02.360Z,2.63
2023-11-25T10:03:47.683Z,2.53
2023-11-25T10:06:32.519Z,2.67
2023-11-25T10:09:17.580Z,1.96
2023-11-25T10:12:02.575Z,0.99
2023-11-25T10:14:47.562Z,1.26
2023-11-25T10:17:32.528Z,1.57
2023-11-25T10:20:18.826Z,1.83
2023-11-25T10:23:03.446Z,1.82
2023-11-25T10:25:48.566Z,2.48
2023-11-25T10:28:33.552Z,1.76
2023-11-25T10:31:18.368Z,1.79
2023-11-25T10:34:03.477Z,1.59
2023-11-25T10:36:48.390Z,1.85
2023-11-25T10:39:33.370Z,2.26
2023-11-25T10:42:18.344Z,2.00
2023-11-25T10:45:03.252Z,2.14
2023-11-25T10:47:48.364Z,1.16
2023-11-25T10:50:33.209Z,1.42
2023-11-25T10:53:18.194Z,2.42
2023-11-25T10:56:03.214Z,2.93
2023-11-25T10:58:48.196Z,3.06
2023-11-25T11:01:33.471Z,3.43
2023-11-25T11:04:18.475Z,3.44
2023-11-25T11:07:04.572Z,3.10
2023-11-25T11:09:50.276Z,4.17
2023-11-25T11:12:35.361Z,4.88
2023-11-25T11:15:20.271Z,5.25
2023-11-25T11:18:05.719Z,5.03
2023-11-25T11:20:50.838Z,4.65
2023-11-25T11:23:35.808Z,4.03
2023-11-25T11:26:20.729Z,3.17
2023-11-25T11:29:05.626Z,2.29
2023-11-25T11:31:50.740Z,1.89
2023-11-25T11:34:35.679Z,2.10
2023-11-25T11:37:20.517Z,1.42
2023-11-25T11:40:05.484Z,1.97
2023-11-25T11:42:50.502Z,2.63
2023-11-25T11:45:35.626Z,2.34
2023-11-25T11:48:20.533Z,1.77
2023-11-25T11:51:05.586Z,1.93
2023-11-25T11:53:50.424Z,1.59
2023-11-25T11:56:35.461Z,1.50
2023-11-25T11:59:20.299Z,1.17
2023-11-25T12:02:05.555Z,1.48
2023-11-25T12:04:50.518Z,1.02
2023-11-25T12:07:35.407Z,0.51
2023-11-25T12:10:20.359Z,0.67
2023-11-25T12:13:05.401Z,1.19
2023-11-25T12:15:50.509Z,1.89
2023-11-25T12:18:35.359Z,2.70
2023-11-25T12:21:20.336Z,2.93
2023-11-25T12:24:05.282Z,2.75
2023-11-25T12:26:50.350Z,3.65
2023-11-25T12:29:35.419Z,3.57
2023-11-25T12:32:20.495Z,3.95
2023-11-25T12:35:05.483Z,2.29
2023-11-25T12:38:04.324Z,1.24
2023-11-25T12:40:54.928Z,2.03
2023-11-25T12:43:40.148Z,2.81
2023-11-25T12:46:24.960Z,3.56
2023-11-25T12:49:10.012Z,3.54
2023-11-25T12:51:54.846Z,2.90
2023-11-25T12:54:39.889Z,2.18
2023-11-25T12:57:24.837Z,1.91
2023-11-25T13:00:09.807Z,1.97
2023-11-25T13:02:55.012Z,1.89
2023-11-25T13:05:39.741Z,2.10
2023-11-25T13:08:24.757Z,2.43
2023-11-25T13:11:09.644Z,2.96
2023-11-25T13:13:54.571Z,3.36
2023-11-25T13:16:39.562Z,3.59
2023-11-25T13:19:24.410Z,2.88
2023-11-25T13:22:09.340Z,1.85
2023-11-25T13:24:54.322Z,1.95
2023-11-25T13:27:39.337Z,2.34
2023-11-25T13:30:24.258Z,2.32
2023-11-25T13:33:09.300Z,1.61
2023-11-25T13:35:54.158Z,1.43
2023-11-25T13:38:39.111Z,1.45
2023-11-25T13:41:24.075Z,1.26
2023-11-25T13:44:09.076Z,1.00
2023-11-25T13:46:53.973Z,1.01
2023-11-25T13:49:38.932Z,0.92
2023-11-25T13:52:23.932Z,0.84
2023-11-25T13:55:08.811Z,0.46
2023-11-25T13:57:53.734Z,0.34
2023-11-25T14:00:38.620Z,0.47
2023-11-25T14:03:23.759Z,0.80
2023-11-25T14:06:08.616Z,1.18
2023-11-25T14:08:53.593Z,1.41
2023-11-25T14:11:38.594Z,1.65
2023-11-25T14:14:23.602Z,2.02
2023-11-25T14:17:08.719Z,2.17
2023-11-25T14:19:53.603Z,2.59
2023-11-25T14:22:38.553Z,2.30
2023-11-25T14:25:23.300Z,2.92
2023-11-25T14:28:08.445Z,2.86
2023-11-25T14:30:53.238Z,2.83
2023-11-25T14:33:38.224Z,2.40
2023-11-25T14:36:23.310Z,2.06
2023-11-25T14:39:08.308Z,2.33
2023-11-25T14:41:53.296Z,2.14
2023-11-25T14:44:38.172Z,1.92
2023-11-25T14:47:23.307Z,1.61
2023-11-25T14:50:08.231Z,1.65
2023-11-25T14:52:53.214Z,2.35
2023-11-25T14:55:38.116Z,2.10
2023-11-25T14:58:23.053Z,1.64
2023-11-25T15:01:08.058Z,1.74
2023-11-25T15:03:52.935Z,1.32
2023-11-25T15:06:39.192Z,0.99
2023-11-25T15:09:25.274Z,1.62
2023-11-25T15:12:10.113Z,1.69
2023-11-25T15:14:55.850Z,1.87
2023-11-25T15:17:41.067Z,1.64
2023-11-25T15:20:26.053Z,1.26
2023-11-25T15:23:10.913Z,0.97
2023-11-25T15:25:55.841Z,1.27
2023-11-25T15:28:40.689Z,1.00
2023-11-25T15:31:25.561Z,0.66
2023-11-25T15:34:12.760Z,0.77
2023-11-25T15:36:58.851Z,1.17
2023-11-25T15:39:43.957Z,1.42
2023-11-25T15:42:28.934Z,1.02
2023-11-25T15:45:13.921Z,1.29
2023-11-25T15:47:58.831Z,1.39
2023-11-25T15:50:44.451Z,1.47
2023-11-25T15:53:29.470Z,1.68
2023-11-25T15:56:14.389Z,1.54
2023-11-25T15:58:59.463Z,1.68
2023-11-25T16:01:44.423Z,1.86
2023-11-25T16:04:29.326Z,2.49
2023-11-25T16:07:14.594Z,2.54
2023-11-25T16:09:59.288Z,2.53
2023-11-25T16:12:44.209Z,2.73
2023-11-25T16:15:29.064Z,2.58
2023-11-25T16:18:14.156Z,2.73
2023-11-25T16:20:59.011Z,2.88
2023-11-25T16:23:45.325Z,2.73
2023-11-25T16:26:30.037Z,2.65
2023-11-25T16:29:15.034Z,2.76
2023-11-25T16:32:00.077Z,2.89
2023-11-25T16:34:45.006Z,2.58
2023-11-25T16:37:30.043Z,2.70
2023-11-25T16:40:15.045Z,2.60
2023-11-25T16:42:59.968Z,2.61
2023-11-25T16:45:45.025Z,2.46
2023-11-25T16:48:39.282Z,2.52
2023-11-25T16:51:33.314Z,2.64
2023-11-25T16:54:18.354Z,2.67
2023-11-25T16:57:03.512Z,2.55
2023-11-25T16:59:48.449Z,2.54
2023-11-25T17:02:33.649Z,2.49
2023-11-25T17:05:18.367Z,2.64
2023-11-25T17:08:03.335Z,2.73
2023-11-25T17:10:48.436Z,2.66
2023-11-25T17:13:33.408Z,2.54
2023-11-25T17:16:18.465Z,2.69
2023-11-25T17:19:03.406Z,2.43
2023-11-25T17:21:48.428Z,2.42
2023-11-25T17:24:33.314Z,2.53
2023-11-25T17:27:18.337Z,2.60
2023-11-25T17:30:03.233Z,2.61
2023-11-25T17:32:48.325Z,2.71
2023-11-25T17:35:33.460Z,2.74
2023-11-25T17:38:18.419Z,2.74
2023-11-25T17:41:03.373Z,2.73
2023-11-25T17:43:48.306Z,2.85
2023-11-25T17:46:33.327Z,2.85
2023-11-25T17:49:18.212Z,2.66
2023-11-25T17:52:03.217Z,2.05
2023-11-25T17:54:48.064Z,2.33
2023-11-25T17:57:32.976Z,2.26
2023-11-25T18:00:17.977Z,2.07
2023-11-25T18:03:02.989Z,1.86
2023-11-25T18:05:47.893Z,1.51
2023-11-25T18:08:32.716Z,1.81
2023-11-25T18:11:17.610Z,2.09
2023-11-25T18:14:02.593Z,2.18
2023-11-25T18:16:47.555Z,1.94
2023-11-25T18:19:32.513Z,1.02
2023-11-25T18:22:17.530Z,1.38
2023-11-25T18:25:02.595Z,1.57
2023-11-25T18:27:47.569Z,1.74
2023-11-25T18:30:32.674Z,1.79
2023-11-25T18:33:17.569Z,2.12
2023-11-25T18:36:02.734Z,2.07
2023-11-25T18:38:47.602Z,2.09
2023-11-25T18:41:32.540Z,1.16
2023-11-25T18:44:17.491Z,1.27
2023-11-25T18:47:02.730Z,1.32
2023-11-25T18:49:47.530Z,1.31
2023-11-25T18:52:32.517Z,0.94
2023-11-25T18:55:17.581Z,0.86
2023-11-25T18:58:02.383Z,1.16
2023-11-25T19:00:47.407Z,1.18
2023-11-25T19:03:32.269Z,1.22
2023-11-25T19:06:17.345Z,1.35
2023-11-25T19:09:02.434Z,1.54
2023-11-25T19:11:47.402Z,1.06
2023-11-25T19:14:32.442Z,1.13
2023-11-25T19:17:17.385Z,1.06
2023-11-25T19:20:02.233Z,1.26
2023-11-25T19:22:47.258Z,1.86
2023-11-25T19:25:32.303Z,2.08
2023-11-25T19:28:17.284Z,2.25
2023-11-25T19:31:02.352Z,2.34
2023-11-25T19:33:47.461Z,2.40
2023-11-25T19:36:32.348Z,2.45
2023-11-25T19:39:17.484Z,2.47
2023-11-25T19:42:02.343Z,2.05
2023-11-25T19:44:47.334Z,1.79
2023-11-25T19:47:32.462Z,1.59
2023-11-25T19:50:17.610Z,1.37
2023-11-25T19:53:02.476Z,1.18
2023-11-25T19:55:47.363Z,1.55
2023-11-25T19:58:32.458Z,1.48
2023-11-25T20:01:17.443Z,1.54
2023-11-25T20:04:02.349Z,1.43
2023-11-25T20:06:47.127Z,1.54
2023-11-25T20:09:32.038Z,1.93
2023-11-25T20:12:16.902Z,2.04
2023-11-25T20:15:01.833Z,2.01
2023-11-25T20:17:46.861Z,2.04
2023-11-25T20:20:31.851Z,1.65
2023-11-25T20:23:17.016Z,2.08
2023-11-25T20:26:01.813Z,2.15
2023-11-25T20:28:46.752Z,2.17
2023-11-25T20:31:31.571Z,2.16
2023-11-25T20:34:16.549Z,2.17
2023-11-25T20:37:01.465Z,2.09
2023-11-25T20:39:46.413Z,2.13
2023-11-25T20:42:31.320Z,2.09
2023-11-25T20:45:16.252Z,2.27
2023-11-25T20:48:01.352Z,2.34
2023-11-25T20:50:46.286Z,2.22
2023-11-25T20:53:31.281Z,2.09
2023-11-25T20:56:16.039Z,2.21
2023-11-25T20:59:01.110Z,2.19
2023-11-25T21:01:46.137Z,2.17
2023-11-25T21:04:31.030Z,2.06
2023-11-25T21:07:16.145Z,2.18
2023-11-25T21:10:01.159Z,2.20
2023-11-25T21:12:46.603Z,2.04
2023-11-25T21:15:32.169Z,1.93
2023-11-25T21:18:17.081Z,1.62
2023-11-25T21:21:01.854Z,1.89
2023-11-25T21:23:46.793Z,2.02
2023-11-25T21:26:31.762Z,1.83
2023-11-25T21:29:16.897Z,1.84
2023-11-25T21:32:01.787Z,1.35
2023-11-25T21:34:46.686Z,1.62
2023-11-25T21:37:31.647Z,1.65
2023-11-25T21:40:23.051Z,1.72
2023-11-25T21:43:09.035Z,1.70
2023-11-25T21:45:54.031Z,1.87
2023-11-25T21:48:39.059Z,1.55
2023-11-25T21:51:24.018Z,1.52
2023-11-25T21:54:09.171Z,1.55
2023-11-25T21:56:54.137Z,1.78
2023-11-25T21:59:38.974Z,1.78
2023-11-25T22:02:24.046Z,1.95
2023-11-25T22:05:08.854Z,1.92
2023-11-25T22:07:53.748Z,1.84
2023-11-25T22:10:38.726Z,1.93
2023-11-25T22:13:23.500Z,2.00
2023-11-25T22:16:08.446Z,2.03
2023-11-25T22:18:53.467Z,1.99
2023-11-25T22:21:38.379Z,2.05
2023-11-25T22:24:23.486Z,1.92
2023-11-25T22:27:08.376Z,1.87
2023-11-25T22:29:53.369Z,1.84
2023-11-25T22:32:38.342Z,1.58
2023-11-25T22:35:23.226Z,1.47
2023-11-25T22:38:08.347Z,1.64
2023-11-25T22:40:53.102Z,1.54
2023-11-25T22:43:38.249Z,1.42
2023-11-25T22:46:23.271Z,1.06
2023-11-25T22:49:08.297Z,0.99
2023-11-25T22:51:53.286Z,1.06
2023-11-25T22:54:38.396Z,1.26
2023-11-25T22:57:23.413Z,1.47
2023-11-25T23:00:08.367Z,1.49
2023-11-25T23:02:53.415Z,1.52
2023-11-25T23:05:38.185Z,1.49
2023-11-25T23:08:23.305Z,1.41
2023-11-25T23:11:08.189Z,1.43
2023-11-25T23:13:53.153Z,1.15
2023-11-25T23:16:37.992Z,0.72
2023-11-25T23:19:23.114Z,1.22
2023-11-25T23:22:07.979Z,1.41
2023-11-25T23:24:53.012Z,1.52
2023-11-25T23:27:37.833Z,1.61
2023-11-25T23:30:22.723Z,1.61
2023-11-25T23:33:07.687Z,1.60
2023-11-25T23:35:52.465Z,1.53
2023-11-25T23:38:37.453Z,1.59
2023-11-25T23:41:22.448Z,1.61
2023-11-25T23:44:07.396Z,1.64
2023-11-25T23:46:52.422Z,1.58
2023-11-25T23:49:37.341Z,1.71
2023-11-25T23:52:22.360Z,1.66
2023-11-25T23:55:07.323Z,1.56
2023-11-25T23:57:52.316Z,1.08
